sensor_id;sensor_type;location;lat;lon;timestamp;P1;durP1;ratioP1;P2;durP2;ratioP2
52934;SDS011;38802;50.198;19.796;2023-04-01T00:01:10;6.50;;;2.90;;
52934;SDS011;38802;50.198;19.796;2023-04-01T00:03:44;3.70;;;2.60;;
52934;SDS011;38802;50.198;19.796;2023-04-01T00:06:13;6.30;;;2.90;;
52934;SDS011;38802;50.198;19.796;2023-04-01T00:08:42;5.40;;;2.70;;
52934;SDS011;38802;50.198;19.796;2023-04-01T00:11:12;6.40;;;2.90;;
52934;SDS011;38802;50.198;19.796;2023-04-01T00:13:40;4.30;;;2.50;;
52934;SDS011;38802;50.198;19.796;2023-04-01T00:16:09;4.30;;;2.90;;
52934;SDS011;38802;50.198;19.796;2023-04-01T00:18:49;3.20;;;2.40;;
52934;SDS011;38802;50.198;19.796;2023-04-01T00:21:18;5.50;;;2.40;;
52934;SDS011;38802;50.198;19.796;2023-04-01T00:23:48;6.50;;;2.90;;
52934;SDS011;38802;50.198;19.796;2023-04-01T00:26:18;5.10;;;2.30;;
52934;SDS011;38802;50.198;19.796;2023-04-01T00:28:49;4.30;;;2.70;;
52934;SDS011;38802;50.198;19.796;2023-04-01T00:31:18;3.60;;;2.80;;
52934;SDS011;38802;50.198;19.796;2023-04-01T00:33:46;5.30;;;2.90;;
52934;SDS011;38802;50.198;19.796;2023-04-01T00:36:16;7.20;;;2.60;;
52934;SDS011;38802;50.198;19.796;2023-04-01T00:38:46;7.70;;;2.60;;
52934;SDS011;38802;50.198;19.796;2023-04-01T00:41:14;5.20;;;3.00;;
52934;SDS011;38802;50.198;19.796;2023-04-01T00:43:46;4.00;;;3.10;;
52934;SDS011;38802;50.198;19.796;2023-04-01T00:46:17;5.00;;;2.90;;
52934;SDS011;38802;50.198;19.796;2023-04-01T00:48:47;4.40;;;3.30;;
52934;SDS011;38802;50.198;19.796;2023-04-01T00:51:22;5.80;;;3.10;;
52934;SDS011;38802;50.198;19.796;2023-04-01T00:53:54;8.00;;;3.70;;
52934;SDS011;38802;50.198;19.796;2023-04-01T00:56:25;4.30;;;3.10;;
52934;SDS011;38802;50.198;19.796;2023-04-01T00:59:00;4.80;;;3.30;;
52934;SDS011;38802;50.198;19.796;2023-04-01T01:01:32;5.40;;;3.00;;
52934;SDS011;38802;50.198;19.796;2023-04-01T01:04:01;4.50;;;3.00;;
52934;SDS011;38802;50.198;19.796;2023-04-01T01:06:45;3.30;;;2.70;;
52934;SDS011;38802;50.198;19.796;2023-04-01T01:09:43;6.80;;;4.10;;
52934;SDS011;38802;50.198;19.796;2023-04-01T01:34:44;6.20;;;3.60;;
52934;SDS011;38802;50.198;19.796;2023-04-01T01:37:23;5.80;;;3.80;;
52934;SDS011;38802;50.198;19.796;2023-04-01T01:39:55;4.80;;;3.50;;
52934;SDS011;38802;50.198;19.796;2023-04-01T01:42:30;4.10;;;3.80;;
52934;SDS011;38802;50.198;19.796;2023-04-01T01:45:02;6.20;;;3.50;;
52934;SDS011;38802;50.198;19.796;2023-04-01T01:47:33;4.60;;;4.00;;
52934;SDS011;38802;50.198;19.796;2023-04-01T01:50:04;4.70;;;3.10;;
52934;SDS011;38802;50.198;19.796;2023-04-01T01:52:34;4.80;;;3.90;;
52934;SDS011;38802;50.198;19.796;2023-04-01T01:55:03;6.90;;;3.50;;
52934;SDS011;38802;50.198;19.796;2023-04-01T01:57:51;8.80;;;3.30;;
52934;SDS011;38802;50.198;19.796;2023-04-01T02:00:20;7.50;;;4.00;;
52934;SDS011;38802;50.198;19.796;2023-04-01T02:02:49;5.90;;;3.80;;
52934;SDS011;38802;50.198;19.796;2023-04-01T02:05:20;7.80;;;3.40;;
52934;SDS011;38802;50.198;19.796;2023-04-01T02:08:09;6.80;;;3.80;;
52934;SDS011;38802;50.198;19.796;2023-04-01T02:10:42;7.40;;;3.50;;
52934;SDS011;38802;50.198;19.796;2023-04-01T02:13:18;6.70;;;3.70;;
52934;SDS011;38802;50.198;19.796;2023-04-01T02:15:54;8.20;;;3.70;;
52934;SDS011;38802;50.198;19.796;2023-04-01T02:18:28;7.20;;;3.60;;
52934;SDS011;38802;50.198;19.796;2023-04-01T02:20:57;5.70;;;3.30;;
52934;SDS011;38802;50.198;19.796;2023-04-01T02:23:27;4.20;;;3.80;;
52934;SDS011;38802;50.198;19.796;2023-04-01T02:25:56;5.00;;;3.00;;
52934;SDS011;38802;50.198;19.796;2023-04-01T02:28:25;3.80;;;3.00;;
52934;SDS011;38802;50.198;19.796;2023-04-01T02:30:54;5.40;;;3.20;;
52934;SDS011;38802;50.198;19.796;2023-04-01T02:33:24;5.90;;;3.60;;
52934;SDS011;38802;50.198;19.796;2023-04-01T02:35:53;3.70;;;3.30;;
52934;SDS011;38802;50.198;19.796;2023-04-01T02:38:21;3.30;;;3.00;;
52934;SDS011;38802;50.198;19.796;2023-04-01T02:40:51;3.80;;;3.20;;
52934;SDS011;38802;50.198;19.796;2023-04-01T02:43:24;6.70;;;3.60;;
52934;SDS011;38802;50.198;19.796;2023-04-01T02:45:52;4.40;;;4.00;;
52934;SDS011;38802;50.198;19.796;2023-04-01T02:48:21;4.40;;;3.70;;
52934;SDS011;38802;50.198;19.796;2023-04-01T02:50:49;4.90;;;3.80;;
52934;SDS011;38802;50.198;19.796;2023-04-01T02:53:17;5.00;;;4.40;;
52934;SDS011;38802;50.198;19.796;2023-04-01T02:55:45;10.80;;;4.10;;
52934;SDS011;38802;50.198;19.796;2023-04-01T02:58:14;6.30;;;4.60;;
52934;SDS011;38802;50.198;19.796;2023-04-01T03:00:42;7.90;;;4.10;;
52934;SDS011;38802;50.198;19.796;2023-04-01T03:03:10;6.60;;;4.00;;
52934;SDS011;38802;50.198;19.796;2023-04-01T03:05:38;5.40;;;4.50;;
52934;SDS011;38802;50.198;19.796;2023-04-01T03:08:07;4.70;;;4.10;;
52934;SDS011;38802;50.198;19.796;2023-04-01T03:10:35;6.80;;;4.30;;
52934;SDS011;38802;50.198;19.796;2023-04-01T03:13:03;5.30;;;4.50;;
52934;SDS011;38802;50.198;19.796;2023-04-01T03:15:32;4.50;;;4.00;;
52934;SDS011;38802;50.198;19.796;2023-04-01T03:18:00;5.00;;;4.10;;
52934;SDS011;38802;50.198;19.796;2023-04-01T03:20:28;6.20;;;4.70;;
52934;SDS011;38802;50.198;19.796;2023-04-01T03:22:56;6.00;;;4.30;;
52934;SDS011;38802;50.198;19.796;2023-04-01T03:25:27;7.10;;;4.20;;
52934;SDS011;38802;50.198;19.796;2023-04-01T03:27:56;6.80;;;4.00;;
52934;SDS011;38802;50.198;19.796;2023-04-01T03:30:27;6.10;;;4.60;;
52934;SDS011;38802;50.198;19.796;2023-04-01T03:32:58;5.30;;;4.00;;
52934;SDS011;38802;50.198;19.796;2023-04-01T03:35:27;11.30;;;5.10;;
52934;SDS011;38802;50.198;19.796;2023-04-01T03:37:55;6.40;;;4.90;;
52934;SDS011;38802;50.198;19.796;2023-04-01T03:40:24;7.50;;;5.00;;
52934;SDS011;38802;50.198;19.796;2023-04-01T03:42:53;8.00;;;4.50;;
52934;SDS011;38802;50.198;19.796;2023-04-01T03:45:22;5.40;;;4.80;;
52934;SDS011;38802;50.198;19.796;2023-04-01T03:47:50;6.90;;;6.00;;
52934;SDS011;38802;50.198;19.796;2023-04-01T03:50:18;9.80;;;4.60;;
52934;SDS011;38802;50.198;19.796;2023-04-01T03:52:47;6.80;;;4.80;;
52934;SDS011;38802;50.198;19.796;2023-04-01T03:55:15;5.90;;;4.40;;
52934;SDS011;38802;50.198;19.796;2023-04-01T03:57:44;5.50;;;4.70;;
52934;SDS011;38802;50.198;19.796;2023-04-01T04:00:16;5.20;;;4.40;;
52934;SDS011;38802;50.198;19.796;2023-04-01T04:02:45;5.20;;;4.50;;
52934;SDS011;38802;50.198;19.796;2023-04-01T04:05:16;5.90;;;4.30;;
52934;SDS011;38802;50.198;19.796;2023-04-01T04:07:45;7.60;;;4.30;;
52934;SDS011;38802;50.198;19.796;2023-04-01T04:10:13;6.40;;;4.80;;
52934;SDS011;38802;50.198;19.796;2023-04-01T04:12:41;6.50;;;4.90;;
52934;SDS011;38802;50.198;19.796;2023-04-01T04:15:10;6.40;;;4.30;;
52934;SDS011;38802;50.198;19.796;2023-04-01T04:17:39;7.60;;;4.80;;
52934;SDS011;38802;50.198;19.796;2023-04-01T04:20:07;8.60;;;4.10;;
52934;SDS011;38802;50.198;19.796;2023-04-01T04:22:36;6.00;;;4.20;;
52934;SDS011;38802;50.198;19.796;2023-04-01T04:25:06;6.30;;;4.80;;
52934;SDS011;38802;50.198;19.796;2023-04-01T04:27:35;8.00;;;5.20;;
52934;SDS011;38802;50.198;19.796;2023-04-01T04:30:07;8.40;;;4.70;;
52934;SDS011;38802;50.198;19.796;2023-04-01T04:32:36;8.40;;;4.60;;
52934;SDS011;38802;50.198;19.796;2023-04-01T04:35:05;7.20;;;4.40;;
52934;SDS011;38802;50.198;19.796;2023-04-01T04:37:34;13.30;;;5.00;;
52934;SDS011;38802;50.198;19.796;2023-04-01T04:40:03;8.70;;;4.50;;
52934;SDS011;38802;50.198;19.796;2023-04-01T04:42:31;7.10;;;4.70;;
52934;SDS011;38802;50.198;19.796;2023-04-01T04:45:06;5.60;;;5.00;;
52934;SDS011;38802;50.198;19.796;2023-04-01T04:47:35;5.40;;;4.50;;
52934;SDS011;38802;50.198;19.796;2023-04-01T04:50:03;5.90;;;3.70;;
52934;SDS011;38802;50.198;19.796;2023-04-01T04:52:32;6.30;;;4.90;;
52934;SDS011;38802;50.198;19.796;2023-04-01T04:55:00;8.40;;;4.80;;
52934;SDS011;38802;50.198;19.796;2023-04-01T04:57:28;4.20;;;3.80;;
52934;SDS011;38802;50.198;19.796;2023-04-01T04:59:57;5.50;;;4.20;;
52934;SDS011;38802;50.198;19.796;2023-04-01T05:02:45;9.40;;;4.60;;
52934;SDS011;38802;50.198;19.796;2023-04-01T05:05:13;6.00;;;3.90;;
52934;SDS011;38802;50.198;19.796;2023-04-01T05:07:42;9.80;;;4.20;;
52934;SDS011;38802;50.198;19.796;2023-04-01T05:10:10;5.40;;;3.70;;
52934;SDS011;38802;50.198;19.796;2023-04-01T05:12:39;6.70;;;3.30;;
52934;SDS011;38802;50.198;19.796;2023-04-01T05:15:09;5.60;;;3.50;;
52934;SDS011;38802;50.198;19.796;2023-04-01T05:17:38;4.40;;;3.30;;
52934;SDS011;38802;50.198;19.796;2023-04-01T05:20:06;7.90;;;3.60;;
52934;SDS011;38802;50.198;19.796;2023-04-01T05:22:35;4.80;;;3.40;;
52934;SDS011;38802;50.198;19.796;2023-04-01T05:25:03;3.50;;;3.10;;
52934;SDS011;38802;50.198;19.796;2023-04-01T05:27:31;4.60;;;2.70;;
52934;SDS011;38802;50.198;19.796;2023-04-01T05:30:00;4.30;;;2.50;;
52934;SDS011;38802;50.198;19.796;2023-04-01T05:32:42;6.80;;;3.00;;
52934;SDS011;38802;50.198;19.796;2023-04-01T05:35:12;5.40;;;3.30;;
52934;SDS011;38802;50.198;19.796;2023-04-01T05:37:40;4.40;;;2.80;;
52934;SDS011;38802;50.198;19.796;2023-04-01T05:40:08;4.00;;;2.80;;
52934;SDS011;38802;50.198;19.796;2023-04-01T05:42:36;5.70;;;3.00;;
52934;SDS011;38802;50.198;19.796;2023-04-01T05:45:06;5.50;;;3.50;;
52934;SDS011;38802;50.198;19.796;2023-04-01T05:48:01;5.00;;;3.10;;
52934;SDS011;38802;50.198;19.796;2023-04-01T05:50:32;5.00;;;3.60;;
52934;SDS011;38802;50.198;19.796;2023-04-01T05:53:02;5.40;;;3.20;;
52934;SDS011;38802;50.198;19.796;2023-04-01T05:55:30;4.80;;;3.20;;
52934;SDS011;38802;50.198;19.796;2023-04-01T05:57:59;5.30;;;3.50;;
52934;SDS011;38802;50.198;19.796;2023-04-01T06:00:27;7.40;;;3.40;;
52934;SDS011;38802;50.198;19.796;2023-04-01T06:02:58;4.10;;;2.80;;
52934;SDS011;38802;50.198;19.796;2023-04-01T06:05:28;8.70;;;3.40;;
52934;SDS011;38802;50.198;19.796;2023-04-01T06:08:00;5.00;;;3.30;;
52934;SDS011;38802;50.198;19.796;2023-04-01T06:10:59;4.30;;;3.20;;
52934;SDS011;38802;50.198;19.796;2023-04-01T06:13:31;4.10;;;3.00;;
52934;SDS011;38802;50.198;19.796;2023-04-01T06:19:13;11.10;;;3.50;;
52934;SDS011;38802;50.198;19.796;2023-04-01T06:22:22;3.20;;;2.90;;
52934;SDS011;38802;50.198;19.796;2023-04-01T06:43:07;6.70;;;3.20;;
52934;SDS011;38802;50.198;19.796;2023-04-01T06:46:20;6.10;;;2.30;;
52934;SDS011;38802;50.198;19.796;2023-04-01T06:52:22;5.00;;;2.80;;
52934;SDS011;38802;50.198;19.796;2023-04-01T06:55:38;7.10;;;2.60;;
52934;SDS011;38802;50.198;19.796;2023-04-01T06:58:34;5.60;;;2.90;;
52934;SDS011;38802;50.198;19.796;2023-04-01T07:01:08;2.60;;;2.10;;
52934;SDS011;38802;50.198;19.796;2023-04-01T07:06:20;3.80;;;2.70;;
52934;SDS011;38802;50.198;19.796;2023-04-01T07:08:55;4.00;;;3.00;;
52934;SDS011;38802;50.198;19.796;2023-04-01T07:11:50;4.60;;;2.70;;
52934;SDS011;38802;50.198;19.796;2023-04-01T07:18:15;8.10;;;3.50;;
52934;SDS011;38802;50.198;19.796;2023-04-01T07:20:49;5.70;;;3.00;;
52934;SDS011;38802;50.198;19.796;2023-04-01T07:23:24;5.00;;;3.10;;
52934;SDS011;38802;50.198;19.796;2023-04-01T07:26:17;5.00;;;2.90;;
52934;SDS011;38802;50.198;19.796;2023-04-01T07:29:12;7.10;;;3.30;;
52934;SDS011;38802;50.198;19.796;2023-04-01T07:34:50;4.50;;;3.10;;
52934;SDS011;38802;50.198;19.796;2023-04-01T07:37:30;4.80;;;3.10;;
52934;SDS011;38802;50.198;19.796;2023-04-01T07:40:26;4.80;;;3.30;;
52934;SDS011;38802;50.198;19.796;2023-04-01T07:58:11;6.80;;;3.40;;
52934;SDS011;38802;50.198;19.796;2023-04-01T08:06:49;4.80;;;2.80;;
52934;SDS011;38802;50.198;19.796;2023-04-01T08:09:37;6.70;;;3.10;;
52934;SDS011;38802;50.198;19.796;2023-04-01T08:21:23;4.50;;;2.40;;
52934;SDS011;38802;50.198;19.796;2023-04-01T08:23:56;3.40;;;2.30;;
52934;SDS011;38802;50.198;19.796;2023-04-01T08:26:39;7.40;;;3.00;;
52934;SDS011;38802;50.198;19.796;2023-04-01T08:29:14;7.30;;;2.90;;
52934;SDS011;38802;50.198;19.796;2023-04-01T08:31:51;3.00;;;2.10;;
52934;SDS011;38802;50.198;19.796;2023-04-01T08:34:25;2.90;;;2.20;;
52934;SDS011;38802;50.198;19.796;2023-04-01T08:37:10;5.10;;;2.40;;
52934;SDS011;38802;50.198;19.796;2023-04-01T08:48:57;5.20;;;2.40;;
52934;SDS011;38802;50.198;19.796;2023-04-01T08:57:45;3.50;;;1.30;;
52934;SDS011;38802;50.198;19.796;2023-04-01T09:00:45;3.30;;;1.40;;
52934;SDS011;38802;50.198;19.796;2023-04-01T09:03:48;1.30;;;1.10;;
52934;SDS011;38802;50.198;19.796;2023-04-01T09:09:40;1.90;;;1.00;;
52934;SDS011;38802;50.198;19.796;2023-04-01T09:12:24;3.80;;;1.90;;
52934;SDS011;38802;50.198;19.796;2023-04-01T09:20:25;6.20;;;3.40;;
52934;SDS011;38802;50.198;19.796;2023-04-01T09:28:33;3.00;;;2.70;;
52934;SDS011;38802;50.198;19.796;2023-04-01T09:40:02;3.30;;;2.30;;
52934;SDS011;38802;50.198;19.796;2023-04-01T09:46:14;4.20;;;3.60;;
52934;SDS011;38802;50.198;19.796;2023-04-01T09:54:25;2.80;;;1.90;;
52934;SDS011;38802;50.198;19.796;2023-04-01T10:11:54;3.30;;;2.10;;
52934;SDS011;38802;50.198;19.796;2023-04-01T10:23:08;3.20;;;2.40;;
52934;SDS011;38802;50.198;19.796;2023-04-01T10:31:59;6.60;;;5.40;;
52934;SDS011;38802;50.198;19.796;2023-04-01T10:40:23;3.00;;;2.40;;
52934;SDS011;38802;50.198;19.796;2023-04-01T10:43:17;3.60;;;2.90;;
52934;SDS011;38802;50.198;19.796;2023-04-01T10:49:41;3.70;;;2.00;;
52934;SDS011;38802;50.198;19.796;2023-04-01T11:15:02;2.60;;;2.40;;
52934;SDS011;38802;50.198;19.796;2023-04-01T11:21:02;4.70;;;3.40;;
52934;SDS011;38802;50.198;19.796;2023-04-01T11:23:56;4.40;;;3.70;;
52934;SDS011;38802;50.198;19.796;2023-04-01T11:26:43;4.80;;;3.20;;
52934;SDS011;38802;50.198;19.796;2023-04-01T11:41:51;3.40;;;2.40;;
52934;SDS011;38802;50.198;19.796;2023-04-01T11:45:24;2.80;;;2.60;;
52934;SDS011;38802;50.198;19.796;2023-04-01T11:48:13;3.00;;;2.50;;
52934;SDS011;38802;50.198;19.796;2023-04-01T12:07:15;1.70;;;1.60;;
52934;SDS011;38802;50.198;19.796;2023-04-01T12:26:26;3.20;;;3.00;;
52934;SDS011;38802;50.198;19.796;2023-04-01T12:32:09;3.80;;;3.50;;
52934;SDS011;38802;50.198;19.796;2023-04-01T12:52:22;4.00;;;3.30;;
52934;SDS011;38802;50.198;19.796;2023-04-01T13:10:02;3.10;;;2.60;;
52934;SDS011;38802;50.198;19.796;2023-04-01T13:15:47;3.00;;;2.30;;
52934;SDS011;38802;50.198;19.796;2023-04-01T13:29:32;5.50;;;3.10;;
52934;SDS011;38802;50.198;19.796;2023-04-01T13:32:56;4.90;;;3.30;;
52934;SDS011;38802;50.198;19.796;2023-04-01T13:41:11;6.10;;;2.80;;
52934;SDS011;38802;50.198;19.796;2023-04-01T13:44:06;4.10;;;3.10;;
52934;SDS011;38802;50.198;19.796;2023-04-01T13:49:35;8.30;;;5.80;;
52934;SDS011;38802;50.198;19.796;2023-04-01T13:58:13;3.20;;;2.20;;
52934;SDS011;38802;50.198;19.796;2023-04-01T14:03:32;2.90;;;2.70;;
52934;SDS011;38802;50.198;19.796;2023-04-01T14:12:11;3.30;;;3.00;;
52934;SDS011;38802;50.198;19.796;2023-04-01T14:15:07;3.00;;;2.70;;
52934;SDS011;38802;50.198;19.796;2023-04-01T14:26:28;5.60;;;4.60;;
52934;SDS011;38802;50.198;19.796;2023-04-01T14:40:52;4.60;;;3.10;;
52934;SDS011;38802;50.198;19.796;2023-04-01T14:49:22;6.70;;;5.70;;
52934;SDS011;38802;50.198;19.796;2023-04-01T14:52:04;5.00;;;4.60;;
52934;SDS011;38802;50.198;19.796;2023-04-01T14:54:40;5.20;;;4.70;;
52934;SDS011;38802;50.198;19.796;2023-04-01T14:59:49;9.10;;;7.40;;
52934;SDS011;38802;50.198;19.796;2023-04-01T15:08:11;8.70;;;6.20;;
52934;SDS011;38802;50.198;19.796;2023-04-01T15:16:23;6.90;;;5.50;;
52934;SDS011;38802;50.198;19.796;2023-04-01T15:28:39;6.80;;;4.20;;
52934;SDS011;38802;50.198;19.796;2023-04-01T15:31:34;4.10;;;3.70;;
52934;SDS011;38802;50.198;19.796;2023-04-01T15:46:19;9.20;;;4.80;;
52934;SDS011;38802;50.198;19.796;2023-04-01T16:09:14;10.70;;;9.40;;
52934;SDS011;38802;50.198;19.796;2023-04-01T16:17:49;20.80;;;10.70;;
52934;SDS011;38802;50.198;19.796;2023-04-01T16:23:18;17.10;;;11.90;;
52934;SDS011;38802;50.198;19.796;2023-04-01T16:26:16;27.20;;;14.50;;
52934;SDS011;38802;50.198;19.796;2023-04-01T16:40:11;11.20;;;10.00;;
52934;SDS011;38802;50.198;19.796;2023-04-01T16:42:49;10.80;;;9.70;;
52934;SDS011;38802;50.198;19.796;2023-04-01T16:48:12;10.60;;;8.90;;
52934;SDS011;38802;50.198;19.796;2023-04-01T16:53:25;12.30;;;10.80;;
52934;SDS011;38802;50.198;19.796;2023-04-01T16:56:08;15.50;;;12.30;;
52934;SDS011;38802;50.198;19.796;2023-04-01T16:58:48;16.50;;;12.80;;
52934;SDS011;38802;50.198;19.796;2023-04-01T17:01:22;19.90;;;13.30;;
52934;SDS011;38802;50.198;19.796;2023-04-01T17:04:04;17.80;;;14.20;;
52934;SDS011;38802;50.198;19.796;2023-04-01T17:06:47;14.30;;;12.70;;
52934;SDS011;38802;50.198;19.796;2023-04-01T17:09:29;13.40;;;11.50;;
52934;SDS011;38802;50.198;19.796;2023-04-01T17:27:00;17.90;;;12.90;;
52934;SDS011;38802;50.198;19.796;2023-04-01T17:35:58;12.90;;;11.70;;
52934;SDS011;38802;50.198;19.796;2023-04-01T17:41:36;13.80;;;12.10;;
52934;SDS011;38802;50.198;19.796;2023-04-01T17:44:33;15.70;;;13.10;;
52934;SDS011;38802;50.198;19.796;2023-04-01T17:50:13;15.50;;;13.90;;
52934;SDS011;38802;50.198;19.796;2023-04-01T17:52:47;15.30;;;13.40;;
52934;SDS011;38802;50.198;19.796;2023-04-01T17:58:04;17.20;;;14.80;;
52934;SDS011;38802;50.198;19.796;2023-04-01T18:23:41;20.70;;;16.30;;
52934;SDS011;38802;50.198;19.796;2023-04-01T18:26:30;24.10;;;17.20;;
52934;SDS011;38802;50.198;19.796;2023-04-01T18:37:44;35.20;;;22.30;;
52934;SDS011;38802;50.198;19.796;2023-04-01T18:40:20;38.50;;;23.90;;
52934;SDS011;38802;50.198;19.796;2023-04-01T18:45:56;28.40;;;21.20;;
52934;SDS011;38802;50.198;19.796;2023-04-01T18:51:16;28.20;;;18.90;;
52934;SDS011;38802;50.198;19.796;2023-04-01T18:54:02;26.80;;;19.20;;
52934;SDS011;38802;50.198;19.796;2023-04-01T18:56:39;28.50;;;19.20;;
52934;SDS011;38802;50.198;19.796;2023-04-01T18:59:26;30.50;;;20.10;;
52934;SDS011;38802;50.198;19.796;2023-04-01T19:02:04;27.90;;;20.50;;
52934;SDS011;38802;50.198;19.796;2023-04-01T19:04:47;24.70;;;17.60;;
52934;SDS011;38802;50.198;19.796;2023-04-01T19:09:47;26.90;;;19.90;;
52934;SDS011;38802;50.198;19.796;2023-04-01T19:15:25;30.00;;;20.60;;
52934;SDS011;38802;50.198;19.796;2023-04-01T19:20:47;33.20;;;22.20;;
52934;SDS011;38802;50.198;19.796;2023-04-01T19:25:57;28.20;;;18.20;;
52934;SDS011;38802;50.198;19.796;2023-04-01T19:37:11;20.60;;;15.70;;
52934;SDS011;38802;50.198;19.796;2023-04-01T19:45:38;19.70;;;14.50;;
52934;SDS011;38802;50.198;19.796;2023-04-01T19:51:37;16.70;;;13.10;;
52934;SDS011;38802;50.198;19.796;2023-04-01T19:57:09;16.10;;;12.20;;
52934;SDS011;38802;50.198;19.796;2023-04-01T19:59:56;14.00;;;11.80;;
52934;SDS011;38802;50.198;19.796;2023-04-01T20:11:37;9.60;;;8.70;;
52934;SDS011;38802;50.198;19.796;2023-04-01T20:19:41;9.30;;;8.40;;
52934;SDS011;38802;50.198;19.796;2023-04-01T20:24:50;8.00;;;7.30;;
52934;SDS011;38802;50.198;19.796;2023-04-01T20:27:21;10.50;;;8.30;;
52934;SDS011;38802;50.198;19.796;2023-04-01T20:30:12;9.90;;;9.00;;
52934;SDS011;38802;50.198;19.796;2023-04-01T20:46:57;11.40;;;10.30;;
52934;SDS011;38802;50.198;19.796;2023-04-01T20:52:17;12.70;;;11.60;;
52934;SDS011;38802;50.198;19.796;2023-04-01T20:55:18;14.90;;;12.00;;
52934;SDS011;38802;50.198;19.796;2023-04-01T20:58:01;16.50;;;12.20;;
52934;SDS011;38802;50.198;19.796;2023-04-01T21:03:40;12.40;;;11.20;;
52934;SDS011;38802;50.198;19.796;2023-04-01T21:06:20;12.20;;;11.00;;
52934;SDS011;38802;50.198;19.796;2023-04-01T21:12:05;13.40;;;11.40;;
52934;SDS011;38802;50.198;19.796;2023-04-01T21:23:00;13.00;;;11.70;;
52934;SDS011;38802;50.198;19.796;2023-04-01T21:28:40;13.40;;;11.90;;
52934;SDS011;38802;50.198;19.796;2023-04-01T21:31:28;17.60;;;12.50;;
52934;SDS011;38802;50.198;19.796;2023-04-01T21:37:22;15.30;;;13.90;;
52934;SDS011;38802;50.198;19.796;2023-04-01T21:40:14;19.10;;;14.30;;
52934;SDS011;38802;50.198;19.796;2023-04-01T22:09:35;20.30;;;16.40;;
52934;SDS011;38802;50.198;19.796;2023-04-01T22:12:09;19.50;;;16.40;;
52934;SDS011;38802;50.198;19.796;2023-04-01T22:15:17;17.70;;;14.70;;
52934;SDS011;38802;50.198;19.796;2023-04-01T22:20:43;26.70;;;18.20;;
52934;SDS011;38802;50.198;19.796;2023-04-01T22:25:55;17.20;;;14.10;;
52934;SDS011;38802;50.198;19.796;2023-04-01T22:31:02;41.90;;;25.30;;
52934;SDS011;38802;50.198;19.796;2023-04-01T22:33:46;79.70;;;41.10;;
52934;SDS011;38802;50.198;19.796;2023-04-01T22:50:02;30.40;;;18.70;;
52934;SDS011;38802;50.198;19.796;2023-04-01T22:52:40;31.00;;;20.50;;
52934;SDS011;38802;50.198;19.796;2023-04-01T22:55:16;18.20;;;15.10;;
52934;SDS011;38802;50.198;19.796;2023-04-01T22:58:00;17.60;;;14.90;;
52934;SDS011;38802;50.198;19.796;2023-04-01T23:00:54;18.10;;;14.10;;
52934;SDS011;38802;50.198;19.796;2023-04-01T23:03:28;17.20;;;14.60;;
52934;SDS011;38802;50.198;19.796;2023-04-01T23:06:00;15.90;;;14.10;;
52934;SDS011;38802;50.198;19.796;2023-04-01T23:19:37;25.80;;;17.40;;
52934;SDS011;38802;50.198;19.796;2023-04-01T23:22:43;21.80;;;16.70;;
52934;SDS011;38802;50.198;19.796;2023-04-01T23:35:50;16.10;;;14.40;;
52934;SDS011;38802;50.198;19.796;2023-04-01T23:38:24;18.50;;;14.90;;
52934;SDS011;38802;50.198;19.796;2023-04-01T23:40:54;24.50;;;18.40;;
52934;SDS011;38802;50.198;19.796;2023-04-01T23:43:24;17.80;;;14.60;;
52934;SDS011;38802;50.198;19.796;2023-04-01T23:45:55;17.00;;;14.50;;
52934;SDS011;38802;50.198;19.796;2023-04-01T23:48:28;15.70;;;14.00;;
52934;SDS011;38802;50.198;19.796;2023-04-01T23:51:00;22.30;;;15.70;;
52934;SDS011;38802;50.198;19.796;2023-04-01T23:53:29;18.30;;;14.90;;
52934;SDS011;38802;50.198;19.796;2023-04-01T23:56:02;16.10;;;14.40;;
